sensor_id;sensor_type;location;lat;lon;timestamp;temperature;humidity
26479;DHT22;14163;-26.142;27.992;2022-09-12T00:00:22;24.80;46.50
26479;DHT22;14163;-26.142;27.992;2022-09-12T00:02:52;24.70;46.90
26479;DHT22;14163;-26.142;27.992;2022-09-12T00:05:22;24.60;46.90
26479;DHT22;14163;-26.142;27.992;2022-09-12T00:07:51;24.50;46.70
26479;DHT22;14163;-26.142;27.992;2022-09-12T00:10:20;24.50;46.70
26479;DHT22;14163;-26.142;27.992;2022-09-12T00:12:50;24.50;46.80
26479;DHT22;14163;-26.142;27.992;2022-09-12T00:15:21;24.50;46.90
26479;DHT22;14163;-26.142;27.992;2022-09-12T00:17:50;24.40;47.30
26479;DHT22;14163;-26.142;27.992;2022-09-12T00:20:19;24.40;46.90
26479;DHT22;14163;-26.142;27.992;2022-09-12T00:22:49;24.30;46.90
26479;DHT22;14163;-26.142;27.992;2022-09-12T00:25:18;24.30;47.20
26479;DHT22;14163;-26.142;27.992;2022-09-12T00:27:47;24.30;46.70
26479;DHT22;14163;-26.142;27.992;2022-09-12T00:30:17;24.20;46.40
26479;DHT22;14163;-26.142;27.992;2022-09-12T00:32:47;24.20;46.50
26479;DHT22;14163;-26.142;27.992;2022-09-12T00:35:17;24.20;46.00
26479;DHT22;14163;-26.142;27.992;2022-09-12T00:37:46;24.10;44.20
26479;DHT22;14163;-26.142;27.992;2022-09-12T00:40:15;24.00;45.20
26479;DHT22;14163;-26.142;27.992;2022-09-12T00:42:45;24.00;46.30
26479;DHT22;14163;-26.142;27.992;2022-09-12T00:45:21;24.10;47.10
26479;DHT22;14163;-26.142;27.992;2022-09-12T00:47:53;24.10;47.10
26479;DHT22;14163;-26.142;27.992;2022-09-12T00:50:24;24.10;47.10
26479;DHT22;14163;-26.142;27.992;2022-09-12T00:52:55;24.10;46.60
26479;DHT22;14163;-26.142;27.992;2022-09-12T00:55:29;24.10;46.90
26479;DHT22;14163;-26.142;27.992;2022-09-12T00:58:02;24.00;46.90
26479;DHT22;14163;-26.142;27.992;2022-09-12T01:00:33;24.00;46.90
26479;DHT22;14163;-26.142;27.992;2022-09-12T01:03:07;24.00;46.70
26479;DHT22;14163;-26.142;27.992;2022-09-12T01:05:38;23.90;47.10
26479;DHT22;14163;-26.142;27.992;2022-09-12T01:08:10;23.90;47.50
26479;DHT22;14163;-26.142;27.992;2022-09-12T01:10:40;23.90;47.20
26479;DHT22;14163;-26.142;27.992;2022-09-12T01:13:10;23.90;47.10
26479;DHT22;14163;-26.142;27.992;2022-09-12T01:15:40;23.90;47.10
26479;DHT22;14163;-26.142;27.992;2022-09-12T01:18:18;23.90;47.30
26479;DHT22;14163;-26.142;27.992;2022-09-12T01:21:02;23.80;46.70
26479;DHT22;14163;-26.142;27.992;2022-09-12T01:27:05;23.70;47.30
26479;DHT22;14163;-26.142;27.992;2022-09-12T01:29:57;23.70;46.10
26479;DHT22;14163;-26.142;27.992;2022-09-12T01:32:36;23.60;47.20
26479;DHT22;14163;-26.142;27.992;2022-09-12T01:35:16;23.70;47.40
26479;DHT22;14163;-26.142;27.992;2022-09-12T01:37:54;23.70;47.20
26479;DHT22;14163;-26.142;27.992;2022-09-12T01:40:32;23.60;46.50
26479;DHT22;14163;-26.142;27.992;2022-09-12T01:43:08;23.60;46.50
26479;DHT22;14163;-26.142;27.992;2022-09-12T01:45:44;23.50;46.00
26479;DHT22;14163;-26.142;27.992;2022-09-12T01:48:19;23.50;46.80
26479;DHT22;14163;-26.142;27.992;2022-09-12T01:50:51;23.50;47.30
26479;DHT22;14163;-26.142;27.992;2022-09-12T01:53:24;23.50;46.30
26479;DHT22;14163;-26.142;27.992;2022-09-12T01:55:59;23.50;45.00
26479;DHT22;14163;-26.142;27.992;2022-09-12T01:58:34;23.40;44.40
26479;DHT22;14163;-26.142;27.992;2022-09-12T02:01:09;23.40;44.90
26479;DHT22;14163;-26.142;27.992;2022-09-12T02:03:47;23.40;44.80
26479;DHT22;14163;-26.142;27.992;2022-09-12T02:06:19;23.50;44.80
26479;DHT22;14163;-26.142;27.992;2022-09-12T02:08:53;23.60;44.80
26479;DHT22;14163;-26.142;27.992;2022-09-12T02:11:24;23.60;45.30
26479;DHT22;14163;-26.142;27.992;2022-09-12T02:13:56;23.60;45.60
26479;DHT22;14163;-26.142;27.992;2022-09-12T02:16:30;23.70;46.00
26479;DHT22;14163;-26.142;27.992;2022-09-12T02:19:07;23.60;46.30
26479;DHT22;14163;-26.142;27.992;2022-09-12T02:21:40;23.60;45.90
26479;DHT22;14163;-26.142;27.992;2022-09-12T02:24:12;23.50;45.80
26479;DHT22;14163;-26.142;27.992;2022-09-12T02:26:46;23.40;46.30
26479;DHT22;14163;-26.142;27.992;2022-09-12T02:29:17;23.30;46.60
26479;DHT22;14163;-26.142;27.992;2022-09-12T02:31:48;23.30;46.90
26479;DHT22;14163;-26.142;27.992;2022-09-12T02:34:30;23.30;47.20
26479;DHT22;14163;-26.142;27.992;2022-09-12T02:37:06;23.30;47.30
26479;DHT22;14163;-26.142;27.992;2022-09-12T02:39:41;23.20;47.20
26479;DHT22;14163;-26.142;27.992;2022-09-12T02:42:10;23.10;47.20
26479;DHT22;14163;-26.142;27.992;2022-09-12T02:44:40;23.10;47.20
26479;DHT22;14163;-26.142;27.992;2022-09-12T02:47:11;23.00;47.20
26479;DHT22;14163;-26.142;27.992;2022-09-12T02:49:45;23.00;47.00
26479;DHT22;14163;-26.142;27.992;2022-09-12T02:52:14;23.00;46.80
26479;DHT22;14163;-26.142;27.992;2022-09-12T02:54:44;23.00;46.80
26479;DHT22;14163;-26.142;27.992;2022-09-12T02:57:17;22.90;46.90
26479;DHT22;14163;-26.142;27.992;2022-09-12T02:59:46;22.80;46.90
26479;DHT22;14163;-26.142;27.992;2022-09-12T03:02:26;22.80;46.60
26479;DHT22;14163;-26.142;27.992;2022-09-12T03:05:17;22.90;46.80
26479;DHT22;14163;-26.142;27.992;2022-09-12T03:11:07;22.80;47.40
26479;DHT22;14163;-26.142;27.992;2022-09-12T03:13:44;22.80;47.50
26479;DHT22;14163;-26.142;27.992;2022-09-12T03:16:22;22.80;47.50
26479;DHT22;14163;-26.142;27.992;2022-09-12T03:19:00;22.70;47.20
26479;DHT22;14163;-26.142;27.992;2022-09-12T03:21:38;22.70;47.40
26479;DHT22;14163;-26.142;27.992;2022-09-12T03:24:13;22.70;47.80
26479;DHT22;14163;-26.142;27.992;2022-09-12T03:26:46;22.70;47.70
26479;DHT22;14163;-26.142;27.992;2022-09-12T03:29:17;22.60;47.90
26479;DHT22;14163;-26.142;27.992;2022-09-12T03:31:51;22.60;48.10
26479;DHT22;14163;-26.142;27.992;2022-09-12T03:34:21;22.60;48.50
26479;DHT22;14163;-26.142;27.992;2022-09-12T03:36:53;22.50;48.80
26479;DHT22;14163;-26.142;27.992;2022-09-12T03:39:23;22.50;48.80
26479;DHT22;14163;-26.142;27.992;2022-09-12T03:41:53;22.40;48.90
26479;DHT22;14163;-26.142;27.992;2022-09-12T03:44:23;22.40;48.80
26479;DHT22;14163;-26.142;27.992;2022-09-12T03:46:52;22.40;48.30
26479;DHT22;14163;-26.142;27.992;2022-09-12T03:49:21;22.50;48.40
26479;DHT22;14163;-26.142;27.992;2022-09-12T03:51:52;22.60;48.20
26479;DHT22;14163;-26.142;27.992;2022-09-12T03:54:21;22.60;47.60
26479;DHT22;14163;-26.142;27.992;2022-09-12T03:56:51;22.60;47.60
26479;DHT22;14163;-26.142;27.992;2022-09-12T03:59:20;22.60;47.90
26479;DHT22;14163;-26.142;27.992;2022-09-12T04:01:49;22.60;47.30
26479;DHT22;14163;-26.142;27.992;2022-09-12T04:04:18;22.50;48.10
26479;DHT22;14163;-26.142;27.992;2022-09-12T04:06:48;22.50;47.90
26479;DHT22;14163;-26.142;27.992;2022-09-12T04:09:18;22.50;48.20
26479;DHT22;14163;-26.142;27.992;2022-09-12T04:11:48;22.60;48.40
26479;DHT22;14163;-26.142;27.992;2022-09-12T04:14:17;22.50;48.50
26479;DHT22;14163;-26.142;27.992;2022-09-12T04:16:46;22.50;48.50
26479;DHT22;14163;-26.142;27.992;2022-09-12T04:19:15;22.50;48.50
26479;DHT22;14163;-26.142;27.992;2022-09-12T04:21:44;22.50;48.30
26479;DHT22;14163;-26.142;27.992;2022-09-12T04:24:14;22.50;47.70
26479;DHT22;14163;-26.142;27.992;2022-09-12T04:26:44;22.50;47.80
26479;DHT22;14163;-26.142;27.992;2022-09-12T04:29:14;22.50;48.00
26479;DHT22;14163;-26.142;27.992;2022-09-12T04:31:43;22.50;48.10
26479;DHT22;14163;-26.142;27.992;2022-09-12T04:34:12;22.50;48.20
26479;DHT22;14163;-26.142;27.992;2022-09-12T04:36:42;22.40;48.60
26479;DHT22;14163;-26.142;27.992;2022-09-12T04:39:11;22.50;49.10
26479;DHT22;14163;-26.142;27.992;2022-09-12T04:41:40;22.50;49.50
26479;DHT22;14163;-26.142;27.992;2022-09-12T04:44:13;22.50;49.50
26479;DHT22;14163;-26.142;27.992;2022-09-12T04:46:44;22.40;49.50
26479;DHT22;14163;-26.142;27.992;2022-09-12T04:49:14;22.40;49.80
26479;DHT22;14163;-26.142;27.992;2022-09-12T04:51:45;22.40;50.60
26479;DHT22;14163;-26.142;27.992;2022-09-12T04:54:15;22.40;49.80
26479;DHT22;14163;-26.142;27.992;2022-09-12T04:56:47;22.40;50.10
26479;DHT22;14163;-26.142;27.992;2022-09-12T04:59:19;22.50;50.70
26479;DHT22;14163;-26.142;27.992;2022-09-12T05:01:48;22.50;50.80
26479;DHT22;14163;-26.142;27.992;2022-09-12T05:04:17;22.60;49.40
26479;DHT22;14163;-26.142;27.992;2022-09-12T05:06:47;22.70;49.30
26479;DHT22;14163;-26.142;27.992;2022-09-12T05:09:16;22.70;49.00
26479;DHT22;14163;-26.142;27.992;2022-09-12T05:11:45;22.70;49.20
26479;DHT22;14163;-26.142;27.992;2022-09-12T05:14:14;22.70;47.70
26479;DHT22;14163;-26.142;27.992;2022-09-12T05:16:45;22.70;46.80
26479;DHT22;14163;-26.142;27.992;2022-09-12T05:19:15;22.70;46.90
26479;DHT22;14163;-26.142;27.992;2022-09-12T05:21:44;22.70;47.20
26479;DHT22;14163;-26.142;27.992;2022-09-12T05:24:14;22.80;49.60
26479;DHT22;14163;-26.142;27.992;2022-09-12T05:26:43;22.90;50.50
26479;DHT22;14163;-26.142;27.992;2022-09-12T05:29:12;23.00;50.90
26479;DHT22;14163;-26.142;27.992;2022-09-12T05:31:41;23.00;51.30
26479;DHT22;14163;-26.142;27.992;2022-09-12T05:34:12;23.10;51.30
26479;DHT22;14163;-26.142;27.992;2022-09-12T05:36:41;23.10;50.80
26479;DHT22;14163;-26.142;27.992;2022-09-12T05:39:10;23.20;50.20
26479;DHT22;14163;-26.142;27.992;2022-09-12T05:41:40;23.30;50.20
26479;DHT22;14163;-26.142;27.992;2022-09-12T05:44:11;23.30;48.90
26479;DHT22;14163;-26.142;27.992;2022-09-12T05:46:42;23.30;47.10
26479;DHT22;14163;-26.142;27.992;2022-09-12T05:49:16;23.40;48.70
26479;DHT22;14163;-26.142;27.992;2022-09-12T05:51:45;23.50;49.60
26479;DHT22;14163;-26.142;27.992;2022-09-12T05:54:16;23.60;46.90
26479;DHT22;14163;-26.142;27.992;2022-09-12T05:56:47;23.50;45.70
26479;DHT22;14163;-26.142;27.992;2022-09-12T05:59:19;23.60;44.90
26479;DHT22;14163;-26.142;27.992;2022-09-12T06:01:49;23.40;44.70
26479;DHT22;14163;-26.142;27.992;2022-09-12T06:04:20;23.30;45.10
26479;DHT22;14163;-26.142;27.992;2022-09-12T06:06:50;23.50;45.60
26479;DHT22;14163;-26.142;27.992;2022-09-12T06:09:19;23.60;45.40
26479;DHT22;14163;-26.142;27.992;2022-09-12T06:11:49;23.80;45.50
26479;DHT22;14163;-26.142;27.992;2022-09-12T06:14:19;24.00;44.50
26479;DHT22;14163;-26.142;27.992;2022-09-12T06:16:48;24.10;46.80
26479;DHT22;14163;-26.142;27.992;2022-09-12T06:19:20;24.10;47.00
26479;DHT22;14163;-26.142;27.992;2022-09-12T06:21:51;24.20;45.70
26479;DHT22;14163;-26.142;27.992;2022-09-12T06:24:20;24.30;45.80
26479;DHT22;14163;-26.142;27.992;2022-09-12T06:26:50;24.30;46.10
26479;DHT22;14163;-26.142;27.992;2022-09-12T06:29:20;24.20;45.10
26479;DHT22;14163;-26.142;27.992;2022-09-12T06:31:49;24.20;44.90
26479;DHT22;14163;-26.142;27.992;2022-09-12T06:34:20;24.30;44.00
26479;DHT22;14163;-26.142;27.992;2022-09-12T06:36:49;24.30;44.70
26479;DHT22;14163;-26.142;27.992;2022-09-12T06:39:20;24.20;43.40
26479;DHT22;14163;-26.142;27.992;2022-09-12T06:41:51;24.10;44.00
26479;DHT22;14163;-26.142;27.992;2022-09-12T06:44:22;24.20;44.80
26479;DHT22;14163;-26.142;27.992;2022-09-12T06:46:51;24.20;43.50
26479;DHT22;14163;-26.142;27.992;2022-09-12T06:49:22;24.30;43.60
26479;DHT22;14163;-26.142;27.992;2022-09-12T06:51:51;24.40;43.90
26479;DHT22;14163;-26.142;27.992;2022-09-12T06:54:21;24.50;44.00
26479;DHT22;14163;-26.142;27.992;2022-09-12T06:56:52;24.40;43.90
26479;DHT22;14163;-26.142;27.992;2022-09-12T06:59:21;24.30;43.60
26479;DHT22;14163;-26.142;27.992;2022-09-12T07:01:50;24.30;43.20
26479;DHT22;14163;-26.142;27.992;2022-09-12T07:04:22;24.40;43.30
26479;DHT22;14163;-26.142;27.992;2022-09-12T07:06:51;24.50;42.60
26479;DHT22;14163;-26.142;27.992;2022-09-12T07:09:21;24.40;42.70
26479;DHT22;14163;-26.142;27.992;2022-09-12T07:11:50;24.40;43.00
26479;DHT22;14163;-26.142;27.992;2022-09-12T07:14:19;24.40;42.80
26479;DHT22;14163;-26.142;27.992;2022-09-12T07:16:48;24.50;42.80
26479;DHT22;14163;-26.142;27.992;2022-09-12T07:19:18;24.60;42.70
26479;DHT22;14163;-26.142;27.992;2022-09-12T07:21:49;24.60;42.90
26479;DHT22;14163;-26.142;27.992;2022-09-12T07:24:18;24.70;43.00
26479;DHT22;14163;-26.142;27.992;2022-09-12T07:26:47;24.70;43.10
26479;DHT22;14163;-26.142;27.992;2022-09-12T07:29:16;24.80;43.10
26479;DHT22;14163;-26.142;27.992;2022-09-12T07:31:46;24.80;43.30
26479;DHT22;14163;-26.142;27.992;2022-09-12T07:34:15;24.80;43.00
26479;DHT22;14163;-26.142;27.992;2022-09-12T07:36:44;25.00;43.20
26479;DHT22;14163;-26.142;27.992;2022-09-12T07:39:15;24.80;42.30
26479;DHT22;14163;-26.142;27.992;2022-09-12T07:41:44;24.80;42.50
26479;DHT22;14163;-26.142;27.992;2022-09-12T07:44:14;24.80;42.70
26479;DHT22;14163;-26.142;27.992;2022-09-12T07:46:43;24.70;42.80
26479;DHT22;14163;-26.142;27.992;2022-09-12T07:49:12;24.90;43.10
26479;DHT22;14163;-26.142;27.992;2022-09-12T07:51:41;25.10;43.30
26479;DHT22;14163;-26.142;27.992;2022-09-12T07:54:11;25.30;42.60
26479;DHT22;14163;-26.142;27.992;2022-09-12T07:56:42;25.30;42.20
26479;DHT22;14163;-26.142;27.992;2022-09-12T07:59:11;25.20;42.40
26479;DHT22;14163;-26.142;27.992;2022-09-12T08:01:41;25.10;42.50
26479;DHT22;14163;-26.142;27.992;2022-09-12T08:04:10;25.10;41.90
26479;DHT22;14163;-26.142;27.992;2022-09-12T08:06:39;25.10;41.80
26479;DHT22;14163;-26.142;27.992;2022-09-12T08:09:08;25.10;41.40
26479;DHT22;14163;-26.142;27.992;2022-09-12T08:11:41;25.10;41.80
26479;DHT22;14163;-26.142;27.992;2022-09-12T08:14:10;25.20;42.30
26479;DHT22;14163;-26.142;27.992;2022-09-12T08:16:39;25.40;42.60
26479;DHT22;14163;-26.142;27.992;2022-09-12T08:19:08;25.50;41.70
26479;DHT22;14163;-26.142;27.992;2022-09-12T08:21:37;25.70;41.90
26479;DHT22;14163;-26.142;27.992;2022-09-12T08:24:09;25.70;41.40
26479;DHT22;14163;-26.142;27.992;2022-09-12T08:26:41;25.50;41.30
26479;DHT22;14163;-26.142;27.992;2022-09-12T08:29:11;25.30;41.90
26479;DHT22;14163;-26.142;27.992;2022-09-12T08:31:40;25.00;42.40
26479;DHT22;14163;-26.142;27.992;2022-09-12T08:34:09;25.10;42.40
26479;DHT22;14163;-26.142;27.992;2022-09-12T08:36:39;25.10;42.00
26479;DHT22;14163;-26.142;27.992;2022-09-12T08:39:10;25.20;42.00
26479;DHT22;14163;-26.142;27.992;2022-09-12T08:41:43;25.30;42.00
26479;DHT22;14163;-26.142;27.992;2022-09-12T08:44:42;25.40;42.10
26479;DHT22;14163;-26.142;27.992;2022-09-12T08:47:20;25.70;41.60
26479;DHT22;14163;-26.142;27.992;2022-09-12T08:49:59;26.00;42.00
26479;DHT22;14163;-26.142;27.992;2022-09-12T08:52:35;26.00;42.10
26479;DHT22;14163;-26.142;27.992;2022-09-12T08:55:21;25.90;41.30
26479;DHT22;14163;-26.142;27.992;2022-09-12T08:57:54;26.00;41.30
26479;DHT22;14163;-26.142;27.992;2022-09-12T09:00:23;26.20;41.60
26479;DHT22;14163;-26.142;27.992;2022-09-12T09:05:49;26.20;40.90
26479;DHT22;14163;-26.142;27.992;2022-09-12T09:08:44;26.50;40.70
26479;DHT22;14163;-26.142;27.992;2022-09-12T09:11:23;26.60;41.00
26479;DHT22;14163;-26.142;27.992;2022-09-12T09:14:04;26.80;41.10
26479;DHT22;14163;-26.142;27.992;2022-09-12T09:16:57;26.70;39.50
26479;DHT22;14163;-26.142;27.992;2022-09-12T09:19:30;26.70;38.90
26479;DHT22;14163;-26.142;27.992;2022-09-12T09:22:05;26.70;37.40
26479;DHT22;14163;-26.142;27.992;2022-09-12T09:24:39;26.50;37.70
26479;DHT22;14163;-26.142;27.992;2022-09-12T09:27:12;26.60;38.80
26479;DHT22;14163;-26.142;27.992;2022-09-12T09:29:46;26.80;38.60
26479;DHT22;14163;-26.142;27.992;2022-09-12T09:32:21;27.10;38.80
26479;DHT22;14163;-26.142;27.992;2022-09-12T09:34:53;27.30;38.30
26479;DHT22;14163;-26.142;27.992;2022-09-12T09:37:29;27.40;38.50
26479;DHT22;14163;-26.142;27.992;2022-09-12T09:40:05;27.50;39.00
26479;DHT22;14163;-26.142;27.992;2022-09-12T09:42:42;27.70;38.00
26479;DHT22;14163;-26.142;27.992;2022-09-12T09:45:17;27.70;38.40
26479;DHT22;14163;-26.142;27.992;2022-09-12T09:47:48;27.70;38.10
26479;DHT22;14163;-26.142;27.992;2022-09-12T09:50:19;27.60;38.40
26479;DHT22;14163;-26.142;27.992;2022-09-12T09:52:49;27.70;39.00
26479;DHT22;14163;-26.142;27.992;2022-09-12T09:55:22;28.00;38.80
26479;DHT22;14163;-26.142;27.992;2022-09-12T09:57:53;28.10;39.40
26479;DHT22;14163;-26.142;27.992;2022-09-12T10:00:29;28.20;39.30
26479;DHT22;14163;-26.142;27.992;2022-09-12T10:03:05;28.40;38.70
26479;DHT22;14163;-26.142;27.992;2022-09-12T10:05:42;28.70;38.40
26479;DHT22;14163;-26.142;27.992;2022-09-12T10:08:20;28.90;38.10
26479;DHT22;14163;-26.142;27.992;2022-09-12T10:10:54;28.90;38.50
26479;DHT22;14163;-26.142;27.992;2022-09-12T10:13:27;29.20;38.10
26479;DHT22;14163;-26.142;27.992;2022-09-12T10:16:00;29.40;38.00
26479;DHT22;14163;-26.142;27.992;2022-09-12T10:18:35;29.50;37.40
26479;DHT22;14163;-26.142;27.992;2022-09-12T10:21:16;29.50;36.70
26479;DHT22;14163;-26.142;27.992;2022-09-12T10:23:49;29.50;36.00
26479;DHT22;14163;-26.142;27.992;2022-09-12T10:26:19;29.50;36.00
26479;DHT22;14163;-26.142;27.992;2022-09-12T10:28:51;29.70;35.70
26479;DHT22;14163;-26.142;27.992;2022-09-12T10:31:27;30.40;35.60
26479;DHT22;14163;-26.142;27.992;2022-09-12T10:33:58;31.40;33.60
26479;DHT22;14163;-26.142;27.992;2022-09-12T10:36:36;32.20;33.70
26479;DHT22;14163;-26.142;27.992;2022-09-12T10:39:06;33.20;33.30
26479;DHT22;14163;-26.142;27.992;2022-09-12T10:41:40;33.70;33.10
26479;DHT22;14163;-26.142;27.992;2022-09-12T10:44:15;34.40;32.50
26479;DHT22;14163;-26.142;27.992;2022-09-12T10:46:46;35.20;31.60
26479;DHT22;14163;-26.142;27.992;2022-09-12T10:49:29;35.70;30.90
26479;DHT22;14163;-26.142;27.992;2022-09-12T10:52:19;36.00;30.80
26479;DHT22;14163;-26.142;27.992;2022-09-12T10:54:49;36.00;30.60
26479;DHT22;14163;-26.142;27.992;2022-09-12T10:57:32;36.50;31.10
26479;DHT22;14163;-26.142;27.992;2022-09-12T11:00:09;36.60;30.20
26479;DHT22;14163;-26.142;27.992;2022-09-12T11:02:58;36.80;30.40
26479;DHT22;14163;-26.142;27.992;2022-09-12T11:05:42;37.10;31.00
26479;DHT22;14163;-26.142;27.992;2022-09-12T11:08:37;37.30;30.00
26479;DHT22;14163;-26.142;27.992;2022-09-12T11:11:15;37.00;29.80
26479;DHT22;14163;-26.142;27.992;2022-09-12T11:13:58;36.80;30.40
26479;DHT22;14163;-26.142;27.992;2022-09-12T11:16:36;36.80;29.90
26479;DHT22;14163;-26.142;27.992;2022-09-12T11:19:35;36.90;30.40
26479;DHT22;14163;-26.142;27.992;2022-09-12T11:22:17;37.20;30.00
26479;DHT22;14163;-26.142;27.992;2022-09-12T11:25:22;36.80;30.10
26479;DHT22;14163;-26.142;27.992;2022-09-12T11:28:13;36.90;30.20
26479;DHT22;14163;-26.142;27.992;2022-09-12T11:30:58;37.30;30.60
26479;DHT22;14163;-26.142;27.992;2022-09-12T11:33:37;38.00;31.00
26479;DHT22;14163;-26.142;27.992;2022-09-12T11:36:18;38.80;30.60
26479;DHT22;14163;-26.142;27.992;2022-09-12T11:39:01;39.70;30.00
26479;DHT22;14163;-26.142;27.992;2022-09-12T11:41:33;40.40;30.00
26479;DHT22;14163;-26.142;27.992;2022-09-12T11:44:11;40.80;29.40
26479;DHT22;14163;-26.142;27.992;2022-09-12T11:46:44;41.10;29.60
26479;DHT22;14163;-26.142;27.992;2022-09-12T11:49:25;41.30;29.50
26479;DHT22;14163;-26.142;27.992;2022-09-12T11:52:00;41.70;29.10
26479;DHT22;14163;-26.142;27.992;2022-09-12T11:54:34;41.50;28.30
26479;DHT22;14163;-26.142;27.992;2022-09-12T11:57:13;41.20;28.30
26479;DHT22;14163;-26.142;27.992;2022-09-12T11:59:46;40.80;28.50
26479;DHT22;14163;-26.142;27.992;2022-09-12T14:05:54;29.00;33.00
26479;DHT22;14163;-26.142;27.992;2022-09-12T14:08:25;28.90;33.80
26479;DHT22;14163;-26.142;27.992;2022-09-12T14:10:54;29.60;33.30
26479;DHT22;14163;-26.142;27.992;2022-09-12T14:13:25;30.20;33.00
26479;DHT22;14163;-26.142;27.992;2022-09-12T14:15:58;30.80;33.50
26479;DHT22;14163;-26.142;27.992;2022-09-12T14:18:32;31.30;35.60
26479;DHT22;14163;-26.142;27.992;2022-09-12T14:21:08;31.80;36.00
26479;DHT22;14163;-26.142;27.992;2022-09-12T14:23:40;32.20;36.30
26479;DHT22;14163;-26.142;27.992;2022-09-12T14:26:12;32.50;36.40
26479;DHT22;14163;-26.142;27.992;2022-09-12T14:28:44;32.80;36.20
26479;DHT22;14163;-26.142;27.992;2022-09-12T14:31:22;33.00;36.40
26479;DHT22;14163;-26.142;27.992;2022-09-12T14:33:53;33.20;36.20
26479;DHT22;14163;-26.142;27.992;2022-09-12T14:36:26;33.20;36.10
26479;DHT22;14163;-26.142;27.992;2022-09-12T14:38:58;33.30;36.10
26479;DHT22;14163;-26.142;27.992;2022-09-12T14:41:30;33.30;36.20
26479;DHT22;14163;-26.142;27.992;2022-09-12T14:44:01;33.30;36.20
26479;DHT22;14163;-26.142;27.992;2022-09-12T14:46:33;33.20;36.00
26479;DHT22;14163;-26.142;27.992;2022-09-12T14:49:07;33.20;36.30
26479;DHT22;14163;-26.142;27.992;2022-09-12T14:51:42;33.10;36.20
26479;DHT22;14163;-26.142;27.992;2022-09-12T14:54:37;33.00;36.50
26479;DHT22;14163;-26.142;27.992;2022-09-12T14:57:34;33.00;36.30
26479;DHT22;14163;-26.142;27.992;2022-09-12T15:00:21;32.90;36.40
26479;DHT22;14163;-26.142;27.992;2022-09-12T15:02:52;32.90;36.40
26479;DHT22;14163;-26.142;27.992;2022-09-12T15:05:23;32.80;36.30
26479;DHT22;14163;-26.142;27.992;2022-09-12T15:08:12;32.70;36.40
26479;DHT22;14163;-26.142;27.992;2022-09-12T15:10:42;32.50;36.50
26479;DHT22;14163;-26.142;27.992;2022-09-12T15:13:19;32.50;36.90
26479;DHT22;14163;-26.142;27.992;2022-09-12T15:15:50;32.30;36.80
26479;DHT22;14163;-26.142;27.992;2022-09-12T15:18:20;32.30;37.00
26479;DHT22;14163;-26.142;27.992;2022-09-12T15:20:53;32.20;37.40
26479;DHT22;14163;-26.142;27.992;2022-09-12T15:23:33;32.20;37.10
26479;DHT22;14163;-26.142;27.992;2022-09-12T15:26:04;32.10;36.90
26479;DHT22;14163;-26.142;27.992;2022-09-12T15:28:34;32.00;36.60
26479;DHT22;14163;-26.142;27.992;2022-09-12T15:31:11;31.90;36.70
26479;DHT22;14163;-26.142;27.992;2022-09-12T15:33:41;31.90;36.90
26479;DHT22;14163;-26.142;27.992;2022-09-12T15:36:14;31.80;37.40
26479;DHT22;14163;-26.142;27.992;2022-09-12T15:38:47;31.70;36.50
26479;DHT22;14163;-26.142;27.992;2022-09-12T15:41:18;31.70;36.60
26479;DHT22;14163;-26.142;27.992;2022-09-12T15:43:48;31.60;36.80
26479;DHT22;14163;-26.142;27.992;2022-09-12T15:46:18;31.50;36.70
26479;DHT22;14163;-26.142;27.992;2022-09-12T15:48:47;31.50;36.60
26479;DHT22;14163;-26.142;27.992;2022-09-12T15:51:18;31.40;36.30
26479;DHT22;14163;-26.142;27.992;2022-09-12T15:53:49;31.30;36.50
26479;DHT22;14163;-26.142;27.992;2022-09-12T15:56:19;31.30;36.50
26479;DHT22;14163;-26.142;27.992;2022-09-12T15:58:49;31.10;36.40
26479;DHT22;14163;-26.142;27.992;2022-09-12T16:01:18;31.10;36.70
26479;DHT22;14163;-26.142;27.992;2022-09-12T16:03:48;31.00;37.00
26479;DHT22;14163;-26.142;27.992;2022-09-12T16:06:18;31.00;37.40
26479;DHT22;14163;-26.142;27.992;2022-09-12T16:08:50;30.90;37.30
26479;DHT22;14163;-26.142;27.992;2022-09-12T16:11:21;30.80;37.60
26479;DHT22;14163;-26.142;27.992;2022-09-12T16:13:52;30.60;37.90
26479;DHT22;14163;-26.142;27.992;2022-09-12T16:16:22;30.50;38.30
26479;DHT22;14163;-26.142;27.992;2022-09-12T16:18:52;30.40;38.40
26479;DHT22;14163;-26.142;27.992;2022-09-12T16:21:21;30.30;38.60
26479;DHT22;14163;-26.142;27.992;2022-09-12T16:23:52;30.30;38.70
26479;DHT22;14163;-26.142;27.992;2022-09-12T16:26:21;30.20;38.80
26479;DHT22;14163;-26.142;27.992;2022-09-12T16:28:54;30.20;39.00
26479;DHT22;14163;-26.142;27.992;2022-09-12T16:31:24;30.20;38.90
26479;DHT22;14163;-26.142;27.992;2022-09-12T16:33:55;30.20;39.00
26479;DHT22;14163;-26.142;27.992;2022-09-12T16:36:24;30.10;38.80
26479;DHT22;14163;-26.142;27.992;2022-09-12T16:38:56;30.00;38.80
26479;DHT22;14163;-26.142;27.992;2022-09-12T16:41:25;30.00;38.80
26479;DHT22;14163;-26.142;27.992;2022-09-12T16:43:54;29.90;38.90
26479;DHT22;14163;-26.142;27.992;2022-09-12T16:46:25;29.90;39.00
26479;DHT22;14163;-26.142;27.992;2022-09-12T16:48:56;29.80;39.20
26479;DHT22;14163;-26.142;27.992;2022-09-12T16:51:27;29.70;39.40
26479;DHT22;14163;-26.142;27.992;2022-09-12T16:54:00;29.70;40.20
26479;DHT22;14163;-26.142;27.992;2022-09-12T16:56:30;29.60;43.80
26479;DHT22;14163;-26.142;27.992;2022-09-12T16:58:59;29.60;45.90
26479;DHT22;14163;-26.142;27.992;2022-09-12T17:01:29;29.50;49.40
26479;DHT22;14163;-26.142;27.992;2022-09-12T17:04:00;29.30;50.60
26479;DHT22;14163;-26.142;27.992;2022-09-12T17:06:30;29.20;51.40
26479;DHT22;14163;-26.142;27.992;2022-09-12T17:09:02;29.10;52.10
26479;DHT22;14163;-26.142;27.992;2022-09-12T17:11:34;29.00;52.50
26479;DHT22;14163;-26.142;27.992;2022-09-12T17:14:05;28.90;53.00
26479;DHT22;14163;-26.142;27.992;2022-09-12T17:16:37;28.90;53.70
26479;DHT22;14163;-26.142;27.992;2022-09-12T17:19:06;28.80;54.30
26479;DHT22;14163;-26.142;27.992;2022-09-12T17:21:36;28.70;55.70
26479;DHT22;14163;-26.142;27.992;2022-09-12T17:24:08;28.70;55.60
26479;DHT22;14163;-26.142;27.992;2022-09-12T17:26:37;28.60;55.90
26479;DHT22;14163;-26.142;27.992;2022-09-12T17:29:09;28.60;56.30
26479;DHT22;14163;-26.142;27.992;2022-09-12T17:31:38;28.50;57.60
26479;DHT22;14163;-26.142;27.992;2022-09-12T17:34:08;28.40;58.20
26479;DHT22;14163;-26.142;27.992;2022-09-12T17:36:40;28.40;58.70
26479;DHT22;14163;-26.142;27.992;2022-09-12T17:39:11;28.40;59.30
26479;DHT22;14163;-26.142;27.992;2022-09-12T17:41:41;28.30;59.70
26479;DHT22;14163;-26.142;27.992;2022-09-12T17:44:12;28.10;60.40
26479;DHT22;14163;-26.142;27.992;2022-09-12T17:46:43;28.10;61.30
26479;DHT22;14163;-26.142;27.992;2022-09-12T17:49:14;28.00;61.80